createdAt,value
2022-09-21T00:01:31.544Z,8.63
2022-09-21T00:04:01.461Z,8.64
2022-09-21T00:06:35.454Z,8.64
2022-09-21T00:09:05.441Z,8.62
2022-09-21T00:11:35.681Z,8.65
2022-09-21T00:14:08.204Z,8.66
2022-09-21T00:16:41.440Z,8.70
2022-09-21T00:19:09.991Z,8.69
2022-09-21T00:21:38.333Z,8.71
2022-09-21T00:24:06.829Z,8.71
2022-09-21T00:26:33.843Z,8.75
2022-09-21T00:29:03.042Z,8.76
2022-09-21T00:31:32.014Z,8.73
2022-09-21T00:34:00.355Z,8.72
2022-09-21T00:36:28.377Z,8.75
2022-09-21T00:38:58.029Z,8.73
2022-09-21T00:41:26.978Z,8.71
2022-09-21T00:44:22.017Z,8.67
2022-09-21T00:46:55.836Z,8.64
2022-09-21T00:49:24.305Z,8.59
2022-09-21T00:51:53.275Z,8.54
2022-09-21T00:54:28.813Z,8.51
2022-09-21T00:56:56.681Z,8.47
2022-09-21T00:59:29.375Z,8.45
2022-09-21T01:01:58.679Z,8.40
2022-09-21T01:04:28.374Z,8.37
2022-09-21T01:07:01.631Z,8.34
2022-09-21T01:09:28.943Z,8.32
2022-09-21T01:12:04.956Z,8.29
2022-09-21T01:14:41.541Z,8.29
2022-09-21T01:17:35.504Z,8.32
2022-09-21T01:20:21.001Z,8.34
2022-09-21T01:23:06.531Z,8.38
2022-09-21T01:25:54.923Z,8.43
2022-09-21T01:29:03.779Z,8.47
2022-09-21T01:31:40.249Z,8.50
2022-09-21T01:34:34.091Z,8.51
2022-09-21T01:37:07.919Z,8.57
2022-09-21T01:39:37.692Z,8.62
2022-09-21T01:42:07.288Z,8.67
2022-09-21T01:44:38.445Z,8.70
2022-09-21T01:47:14.610Z,8.76
2022-09-21T01:49:54.041Z,8.84
2022-09-21T01:52:27.181Z,8.90
2022-09-21T01:55:09.647Z,8.93
2022-09-21T01:57:54.281Z,8.92
2022-09-21T02:00:22.486Z,8.91
2022-09-21T02:03:13.875Z,8.89
2022-09-21T02:05:41.754Z,8.90
2022-09-21T02:08:10.240Z,8.92
2022-09-21T02:10:42.415Z,8.92
2022-09-21T02:13:10.084Z,8.90
2022-09-21T02:15:44.700Z,8.89
2022-09-21T02:18:34.012Z,8.92
2022-09-21T02:21:04.293Z,8.94
2022-09-21T02:23:46.701Z,8.93
2022-09-21T02:26:23.317Z,8.94
2022-09-21T02:28:55.908Z,8.91
2022-09-21T02:31:47.254Z,8.92
2022-09-21T02:34:36.524Z,8.88
2022-09-21T02:37:33.032Z,8.88
2022-09-21T02:40:15.825Z,8.89
2022-09-21T02:42:47.935Z,8.87
2022-09-21T02:45:22.697Z,8.90
2022-09-21T02:47:56.857Z,8.87
2022-09-21T02:50:33.793Z,8.87
2022-09-21T02:53:04.638Z,8.85
2022-09-21T02:55:33.942Z,8.82
2022-09-21T02:58:06.314Z,8.81
2022-09-21T03:00:35.483Z,8.81
2022-09-21T03:03:17.279Z,8.79
2022-09-21T03:05:48.725Z,8.76
2022-09-21T03:08:19.094Z,8.76
2022-09-21T03:10:47.726Z,8.77
2022-09-21T03:13:14.737Z,8.76
2022-09-21T03:15:41.931Z,8.74
2022-09-21T03:18:11.377Z,8.67
2022-09-21T03:20:40.242Z,8.67
2022-09-21T03:23:10.004Z,8.70
2022-09-21T03:25:38.745Z,8.63
2022-09-21T03:28:05.966Z,8.59
2022-09-21T03:30:35.565Z,8.57
2022-09-21T03:33:03.544Z,8.54
2022-09-21T03:35:30.544Z,8.50
2022-09-21T03:38:00.925Z,8.46
2022-09-21T03:40:31.336Z,8.38
2022-09-21T03:42:58.314Z,8.35
2022-09-21T03:45:27.459Z,8.28
2022-09-21T03:47:57.064Z,8.24
2022-09-21T03:50:25.869Z,8.18
2022-09-21T03:52:52.914Z,8.12
2022-09-21T03:55:20.091Z,8.14
2022-09-21T03:57:47.380Z,8.13
2022-09-21T04:00:14.948Z,8.12
2022-09-21T04:02:42.314Z,8.09
2022-09-21T04:05:11.865Z,8.02
2022-09-21T04:07:39.751Z,7.97
2022-09-21T04:10:12.182Z,7.95
2022-09-21T04:12:42.406Z,7.92
2022-09-21T04:15:14.360Z,7.91
2022-09-21T04:17:41.407Z,7.87
2022-09-21T04:20:09.662Z,7.85
2022-09-21T04:22:41.134Z,7.77
2022-09-21T04:25:10.399Z,7.75
2022-09-21T04:27:37.866Z,7.76
2022-09-21T04:30:06.025Z,7.78
2022-09-21T04:32:33.178Z,7.78
2022-09-21T04:35:00.299Z,7.76
2022-09-21T04:37:27.314Z,7.80
2022-09-21T04:39:54.193Z,7.79
2022-09-21T04:42:21.255Z,7.85
2022-09-21T04:44:48.103Z,7.89
2022-09-21T04:47:15.214Z,7.94
2022-09-21T04:49:42.243Z,8.00
2022-09-21T04:52:09.217Z,8.06
2022-09-21T04:54:36.121Z,8.09
2022-09-21T04:57:03.363Z,8.10
2022-09-21T04:59:30.220Z,8.14
2022-09-21T05:01:57.070Z,8.18
2022-09-21T05:04:24.193Z,8.26
2022-09-21T05:06:51.129Z,8.28
2022-09-21T05:09:39.100Z,8.33
2022-09-21T05:12:06.535Z,8.38
2022-09-21T05:14:33.583Z,8.43
2022-09-21T05:17:00.428Z,8.47
2022-09-21T05:19:29.843Z,8.57
2022-09-21T05:21:56.836Z,8.66
2022-09-21T05:24:24.060Z,8.76
2022-09-21T05:26:51.403Z,8.92
2022-09-21T05:29:18.668Z,9.16
2022-09-21T05:31:56.807Z,9.52
2022-09-21T05:34:46.995Z,9.48
2022-09-21T05:37:51.451Z,9.57
2022-09-21T05:40:19.130Z,9.67
2022-09-21T05:42:46.258Z,9.73
2022-09-21T05:45:15.877Z,9.77
2022-09-21T05:47:53.777Z,9.76
2022-09-21T05:50:46.941Z,9.77
2022-09-21T05:53:29.604Z,9.84
2022-09-21T05:55:57.828Z,9.80
2022-09-21T05:58:37.099Z,9.90
2022-09-21T06:01:31.675Z,10.92
2022-09-21T06:03:59.947Z,10.88
2022-09-21T06:06:26.824Z,10.68
2022-09-21T06:08:54.081Z,10.84
2022-09-21T06:11:21.881Z,11.46
2022-09-21T06:13:48.795Z,12.01
2022-09-21T06:16:15.663Z,12.36
2022-09-21T06:18:45.474Z,11.85
2022-09-21T06:21:14.809Z,11.68
2022-09-21T06:23:41.736Z,11.71
2022-09-21T06:26:08.979Z,11.74
2022-09-21T06:28:36.011Z,11.46
2022-09-21T06:31:03.111Z,11.23
2022-09-21T06:33:30.302Z,10.98
2022-09-21T06:35:59.484Z,10.92
2022-09-21T06:38:29.529Z,10.95
2022-09-21T06:41:06.145Z,10.89
2022-09-21T06:43:33.396Z,10.83
2022-09-21T06:46:02.351Z,10.87
2022-09-21T06:48:31.208Z,10.84
2022-09-21T06:51:04.474Z,10.76
2022-09-21T06:53:34.318Z,11.00
2022-09-21T06:56:12.263Z,11.62
2022-09-21T06:58:39.380Z,11.52
2022-09-21T07:01:13.973Z,11.56
2022-09-21T07:03:42.296Z,11.55
2022-09-21T07:06:15.692Z,11.50
2022-09-21T07:11:35.555Z,11.49
2022-09-21T07:14:04.213Z,11.88
2022-09-21T07:16:31.254Z,13.95
2022-09-21T07:19:10.081Z,12.76
2022-09-21T07:21:38.106Z,12.54
2022-09-21T07:24:09.538Z,12.81
2022-09-21T07:26:39.192Z,14.00
2022-09-21T07:29:06.807Z,16.23
2022-09-21T07:31:34.119Z,17.91
2022-09-21T07:34:01.521Z,17.02
2022-09-21T07:36:28.985Z,18.29
2022-09-21T07:38:56.240Z,17.98
2022-09-21T07:41:23.377Z,17.49
2022-09-21T07:43:50.487Z,15.67
2022-09-21T07:46:17.426Z,16.62
2022-09-21T07:48:44.716Z,17.66
2022-09-21T07:51:14.174Z,17.64
2022-09-21T07:53:47.199Z,17.21
2022-09-21T07:56:17.655Z,16.45
2022-09-21T07:59:03.206Z,15.11
2022-09-21T08:01:31.166Z,14.44
2022-09-21T08:03:58.953Z,14.28
2022-09-21T08:06:28.253Z,14.27
2022-09-21T08:08:58.012Z,13.92
2022-09-21T08:11:27.681Z,13.89
2022-09-21T08:13:57.643Z,14.88
2022-09-21T08:16:25.860Z,17.33
2022-09-21T08:18:53.165Z,17.59
2022-09-21T08:21:22.997Z,17.46
2022-09-21T08:23:50.190Z,17.14
2022-09-21T08:26:20.042Z,17.22
2022-09-21T08:28:51.248Z,17.52
2022-09-21T08:31:21.943Z,16.94
2022-09-21T08:33:49.949Z,17.49
2022-09-21T08:36:18.575Z,17.38
2022-09-21T08:38:46.390Z,17.42
2022-09-21T08:41:20.275Z,16.39
2022-09-21T08:43:55.049Z,15.46
2022-09-21T08:46:27.710Z,14.66
2022-09-21T08:49:10.243Z,14.49
2022-09-21T08:51:42.719Z,14.68
2022-09-21T08:54:51.503Z,14.18
2022-09-21T08:57:19.429Z,13.87
2022-09-21T08:59:49.562Z,13.74
2022-09-21T09:02:41.785Z,13.36
2022-09-21T09:05:44.462Z,13.20
2022-09-21T09:08:18.938Z,13.34
2022-09-21T09:11:13.576Z,13.40
2022-09-21T09:14:09.667Z,13.36
2022-09-21T09:16:48.606Z,13.25
2022-09-21T09:19:31.607Z,13.19
2022-09-21T09:22:02.650Z,13.22
2022-09-21T09:24:44.028Z,13.17
2022-09-21T09:27:18.058Z,13.31
2022-09-21T09:30:03.550Z,13.18
2022-09-21T09:32:45.927Z,13.30
2022-09-21T09:35:22.360Z,13.44
2022-09-21T09:37:55.535Z,13.79
2022-09-21T09:41:05.790Z,14.55
2022-09-21T09:43:51.003Z,14.44
2022-09-21T09:46:52.041Z,14.65
2022-09-21T09:49:56.214Z,15.04
2022-09-21T09:52:25.737Z,15.12
2022-09-21T09:54:55.101Z,15.26
2022-09-21T09:57:32.119Z,14.91
2022-09-21T10:00:12.951Z,14.81
2022-09-21T10:02:49.539Z,14.55
2022-09-21T10:05:21.638Z,14.37
2022-09-21T10:07:48.880Z,14.35
2022-09-21T10:10:22.282Z,14.34
2022-09-21T10:12:52.779Z,14.34
2022-09-21T10:15:21.553Z,14.66
2022-09-21T10:17:49.646Z,15.10
2022-09-21T10:20:20.363Z,15.30
2022-09-21T10:22:55.355Z,15.33
2022-09-21T10:25:24.867Z,15.26
2022-09-21T10:27:56.182Z,15.30
2022-09-21T10:30:36.649Z,15.77
2022-09-21T10:33:03.653Z,15.53
2022-09-21T10:35:30.812Z,15.94
2022-09-21T10:38:22.770Z,16.35
2022-09-21T10:40:50.582Z,15.91
2022-09-21T10:43:44.643Z,15.67
2022-09-21T10:46:12.394Z,15.36
2022-09-21T10:48:39.315Z,15.17
2022-09-21T10:51:06.253Z,14.82
2022-09-21T10:53:36.517Z,14.57
2022-09-21T10:56:19.057Z,14.43
2022-09-21T10:59:22.640Z,14.82
2022-09-21T11:01:52.309Z,15.23
2022-09-21T11:04:31.067Z,15.31
2022-09-21T11:07:32.535Z,15.56
2022-09-21T11:10:34.122Z,15.86
2022-09-21T11:13:35.440Z,15.98
2022-09-21T11:16:15.414Z,16.13
2022-09-21T11:18:56.886Z,16.17
2022-09-21T11:21:31.508Z,16.18
2022-09-21T11:24:24.609Z,16.57
2022-09-21T11:26:54.855Z,16.48
2022-09-21T11:29:33.340Z,16.57
2022-09-21T11:32:41.425Z,16.49
2022-09-21T11:35:20.798Z,16.36
2022-09-21T11:38:06.123Z,16.48
2022-09-21T11:40:44.218Z,16.50
2022-09-21T11:43:42.688Z,16.56
2022-09-21T11:46:45.120Z,16.45
2022-09-21T11:50:03.070Z,15.86
2022-09-21T11:53:01.204Z,16.33
2022-09-21T11:56:01.972Z,16.62
2022-09-21T11:58:46.327Z,16.85
2022-09-21T12:01:32.292Z,17.08
2022-09-21T12:04:04.983Z,17.14
2022-09-21T12:06:52.976Z,16.70
2022-09-21T12:09:38.864Z,16.92
2022-09-21T12:12:17.100Z,16.95
2022-09-21T12:15:18.600Z,16.83
2022-09-21T12:18:16.863Z,16.75
2022-09-21T12:20:55.942Z,16.59
2022-09-21T12:23:43.415Z,16.71
2022-09-21T12:26:15.461Z,16.78
2022-09-21T12:28:49.016Z,16.55
2022-09-21T12:31:25.804Z,16.74
2022-09-21T12:34:05.068Z,16.39
2022-09-21T12:36:47.749Z,16.28
2022-09-21T12:39:28.532Z,16.50
2022-09-21T12:42:22.797Z,16.68
2022-09-21T12:45:01.799Z,16.76
2022-09-21T12:47:52.051Z,16.69
2022-09-21T12:50:45.055Z,16.71
2022-09-21T12:53:19.759Z,16.70
2022-09-21T12:56:18.329Z,16.64
2022-09-21T12:59:10.831Z,16.47
2022-09-21T13:02:14.490Z,16.42
2022-09-21T13:05:05.036Z,16.36
2022-09-21T13:07:47.981Z,16.32
2022-09-21T13:10:23.395Z,16.44
2022-09-21T13:12:55.377Z,16.59
2022-09-21T13:15:27.017Z,16.49
2022-09-21T13:18:06.472Z,16.25
2022-09-21T13:20:36.592Z,16.25
2022-09-21T13:23:04.283Z,16.31
2022-09-21T13:25:37.666Z,16.13
2022-09-21T13:28:05.084Z,15.85
2022-09-21T13:31:30.189Z,15.69
2022-09-21T13:34:39.732Z,15.72
2022-09-21T13:37:11.891Z,15.44
2022-09-21T13:40:02.231Z,15.25
2022-09-21T13:42:36.904Z,15.23
2022-09-21T13:45:13.892Z,15.37
2022-09-21T13:47:50.782Z,15.46
2022-09-21T13:50:32.901Z,15.55
2022-09-21T13:53:07.066Z,15.41
2022-09-21T13:55:41.842Z,15.38
2022-09-21T13:58:29.944Z,15.37
2022-09-21T14:01:00.561Z,15.46
2022-09-21T14:03:34.588Z,15.40
2022-09-21T14:06:17.728Z,15.46
2022-09-21T14:08:50.994Z,15.41
2022-09-21T14:11:45.188Z,15.41
2022-09-21T14:14:15.072Z,15.39
2022-09-21T14:16:45.027Z,15.26
2022-09-21T14:19:18.230Z,15.27
2022-09-21T14:22:04.726Z,15.18
2022-09-21T14:24:51.311Z,15.24
2022-09-21T14:27:45.432Z,15.25
2022-09-21T14:30:25.453Z,15.04
2022-09-21T14:33:02.413Z,14.97
2022-09-21T14:35:42.350Z,14.95
2022-09-21T14:38:30.534Z,15.02
2022-09-21T14:41:01.828Z,15.26
2022-09-21T14:43:35.370Z,15.52
2022-09-21T14:46:11.864Z,15.60
2022-09-21T14:49:04.775Z,15.60
2022-09-21T14:52:20.191Z,15.55
2022-09-21T14:55:08.236Z,15.35
2022-09-21T14:57:50.335Z,15.23
2022-09-21T15:00:24.575Z,15.20
2022-09-21T15:03:25.342Z,15.13
2022-09-21T15:06:23.117Z,15.06
2022-09-21T15:09:09.466Z,15.00
2022-09-21T15:11:42.329Z,14.94
2022-09-21T15:14:21.423Z,14.91
2022-09-21T15:16:51.780Z,14.77
2022-09-21T15:19:19.010Z,14.64
2022-09-21T15:21:48.451Z,14.58
2022-09-21T15:24:19.897Z,14.58
2022-09-21T15:26:51.659Z,14.59
2022-09-21T15:29:31.912Z,14.58
2022-09-21T15:32:01.649Z,14.55
2022-09-21T15:34:29.660Z,14.50
2022-09-21T15:37:15.665Z,14.44
2022-09-21T15:39:46.006Z,14.39
2022-09-21T15:42:18.681Z,14.31
2022-09-21T15:44:50.740Z,14.31
2022-09-21T15:47:21.865Z,14.25
2022-09-21T15:49:49.566Z,14.26
2022-09-21T15:52:24.331Z,14.30
2022-09-21T15:55:15.693Z,14.33
2022-09-21T15:57:43.677Z,14.28
2022-09-21T16:00:17.179Z,14.14
2022-09-21T16:02:56.169Z,14.01
2022-09-21T16:05:25.629Z,13.84
2022-09-21T16:08:17.239Z,13.71
2022-09-21T16:10:45.404Z,13.64
2022-09-21T16:13:33.830Z,13.59
2022-09-21T16:16:13.523Z,13.48
2022-09-21T16:18:43.143Z,13.44
2022-09-21T16:21:22.037Z,13.36
2022-09-21T16:23:51.992Z,13.25
2022-09-21T16:26:34.022Z,13.13
2022-09-21T16:29:09.057Z,13.08
2022-09-21T16:31:37.432Z,12.95
2022-09-21T16:34:43.523Z,12.84
2022-09-21T16:37:25.971Z,12.82
2022-09-21T16:39:58.571Z,12.80
2022-09-21T16:42:33.407Z,12.75
2022-09-21T16:45:01.277Z,12.71
2022-09-21T16:47:29.364Z,12.65
2022-09-21T16:50:02.632Z,12.60
2022-09-21T16:52:30.822Z,12.57
2022-09-21T16:54:59.000Z,12.52
2022-09-21T16:57:26.706Z,12.48
2022-09-21T16:59:53.929Z,12.45
2022-09-21T17:02:20.895Z,12.42
2022-09-21T17:04:48.174Z,12.40
2022-09-21T17:07:17.052Z,12.38
2022-09-21T17:09:47.857Z,12.37
2022-09-21T17:12:17.875Z,12.41
2022-09-21T17:14:47.334Z,12.48
2022-09-21T17:17:21.322Z,12.51
2022-09-21T17:19:50.268Z,12.56
2022-09-21T17:22:18.239Z,12.56
2022-09-21T17:24:50.875Z,12.65
2022-09-21T17:27:22.700Z,12.69
2022-09-21T17:29:50.461Z,12.69
2022-09-21T17:32:20.668Z,12.66
2022-09-21T17:34:56.581Z,12.60
2022-09-21T17:37:24.222Z,12.56
2022-09-21T17:39:54.852Z,12.53
2022-09-21T17:42:25.128Z,12.45
2022-09-21T17:45:13.548Z,12.41
2022-09-21T17:47:42.064Z,12.34
2022-09-21T17:50:12.259Z,12.30
2022-09-21T17:53:00.494Z,12.26
2022-09-21T17:55:32.209Z,12.16
2022-09-21T17:58:02.401Z,12.04
2022-09-21T18:00:41.614Z,11.91
2022-09-21T18:03:17.435Z,11.79
2022-09-21T18:05:57.254Z,11.69
2022-09-21T18:08:30.109Z,11.59
2022-09-21T18:11:25.344Z,11.49
2022-09-21T18:14:30.213Z,11.35
2022-09-21T18:17:15.823Z,11.21
2022-09-21T18:20:10.980Z,11.12
2022-09-21T18:22:41.548Z,11.07
2022-09-21T18:25:18.463Z,10.97
2022-09-21T18:27:48.726Z,10.87
2022-09-21T18:30:17.574Z,10.91
2022-09-21T18:33:04.257Z,10.84
2022-09-21T18:35:41.829Z,10.78
2022-09-21T18:38:23.953Z,10.73
2022-09-21T18:41:09.697Z,10.65
2022-09-21T18:43:39.604Z,10.60
2022-09-21T18:46:17.016Z,10.61
2022-09-21T18:49:13.252Z,10.61
2022-09-21T18:51:47.020Z,10.67
2022-09-21T18:54:25.740Z,10.68
2022-09-21T18:56:56.109Z,10.75
2022-09-21T18:59:31.042Z,10.78
2022-09-21T19:01:59.800Z,10.84
2022-09-21T19:04:28.015Z,10.95
2022-09-21T19:07:05.086Z,11.05
2022-09-21T19:09:45.270Z,11.12
2022-09-21T19:12:17.786Z,11.16
2022-09-21T19:16:00.513Z,11.21
2022-09-21T19:18:52.385Z,11.21
2022-09-21T19:21:51.060Z,11.22
2022-09-21T19:24:34.931Z,11.19
2022-09-21T19:27:41.659Z,11.13
2022-09-21T19:30:12.123Z,11.06
2022-09-21T19:32:47.605Z,10.99
2022-09-21T19:35:21.243Z,10.88
2022-09-21T19:37:50.483Z,10.77
2022-09-21T19:40:19.914Z,10.64
2022-09-21T19:43:13.423Z,10.57
2022-09-21T19:45:50.687Z,10.48
2022-09-21T19:48:19.127Z,10.44
2022-09-21T19:51:03.333Z,10.39
2022-09-21T19:53:49.642Z,10.33
2022-09-21T19:56:37.658Z,10.22
2022-09-21T19:59:27.221Z,10.12
2022-09-21T20:01:58.465Z,10.05
2022-09-21T20:04:39.370Z,9.99
2022-09-21T20:07:25.153Z,9.98
2022-09-21T20:10:25.261Z,9.93
2022-09-21T20:13:08.550Z,9.88
2022-09-21T20:15:47.059Z,9.84
2022-09-21T20:18:28.746Z,9.84
2022-09-21T20:20:57.450Z,9.78
2022-09-21T20:23:25.814Z,9.76
2022-09-21T20:26:31.458Z,9.69
2022-09-21T20:29:00.091Z,9.65
2022-09-21T20:31:27.434Z,9.59
2022-09-21T20:34:15.332Z,9.51
2022-09-21T20:36:45.410Z,9.46
2022-09-21T20:39:17.117Z,9.45
2022-09-21T20:41:43.999Z,9.48
2022-09-21T20:44:14.056Z,9.49
2022-09-21T20:46:46.259Z,9.46
2022-09-21T20:49:15.385Z,9.47
2022-09-21T20:51:42.451Z,9.44
2022-09-21T20:54:09.475Z,9.44
2022-09-21T20:56:36.557Z,9.40
2022-09-21T20:59:03.727Z,9.40
2022-09-21T21:01:30.874Z,9.37
2022-09-21T21:04:03.598Z,9.31
2022-09-21T21:06:34.150Z,9.28
2022-09-21T21:09:01.248Z,9.25
2022-09-21T21:11:28.293Z,9.24
2022-09-21T21:13:56.253Z,9.23
2022-09-21T21:16:23.332Z,9.22
2022-09-21T21:18:55.687Z,9.23
2022-09-21T21:21:24.695Z,9.25
2022-09-21T21:24:11.052Z,9.24
2022-09-21T21:27:00.824Z,9.20
2022-09-21T21:29:27.887Z,9.12
2022-09-21T21:31:57.629Z,9.08
2022-09-21T21:34:25.401Z,9.04
2022-09-21T21:36:52.859Z,9.03
2022-09-21T21:39:20.187Z,8.98
2022-09-21T21:41:47.702Z,8.99
2022-09-21T21:44:15.866Z,9.00
2022-09-21T21:46:43.418Z,8.98
2022-09-21T21:49:13.551Z,8.96
2022-09-21T21:51:40.672Z,8.95
2022-09-21T21:54:08.544Z,8.95
2022-09-21T21:56:35.512Z,8.92
2022-09-21T21:59:02.970Z,8.94
2022-09-21T22:01:30.277Z,8.95
2022-09-21T22:03:59.762Z,9.02
2022-09-21T22:06:28.424Z,9.09
2022-09-21T22:08:56.810Z,9.17
2022-09-21T22:11:25.598Z,9.25
2022-09-21T22:13:54.181Z,9.31
2022-09-21T22:16:23.583Z,9.33
2022-09-21T22:18:52.077Z,9.35
2022-09-21T22:21:24.552Z,9.37
2022-09-21T22:24:02.974Z,9.43
2022-09-21T22:26:33.536Z,9.47
2022-09-21T22:29:02.909Z,9.51
2022-09-21T22:31:33.035Z,9.55
2022-09-21T22:34:02.787Z,9.56
2022-09-21T22:36:32.507Z,9.54
2022-09-21T22:38:59.855Z,9.51
2022-09-21T22:41:29.983Z,9.45
2022-09-21T22:43:59.970Z,9.41
2022-09-21T22:46:31.022Z,9.34
2022-09-21T22:48:58.615Z,9.29
2022-09-21T22:51:26.085Z,9.22
2022-09-21T22:53:53.128Z,9.13
2022-09-21T22:56:23.358Z,9.09
2022-09-21T22:58:57.368Z,9.03
2022-09-21T23:01:34.511Z,9.02
2022-09-21T23:04:06.999Z,8.97
2022-09-21T23:06:36.300Z,8.92
2022-09-21T23:09:06.863Z,8.87
2022-09-21T23:11:39.417Z,8.82
2022-09-21T23:14:06.912Z,8.77
2022-09-21T23:16:34.209Z,8.72
2022-09-21T23:19:01.230Z,8.72
2022-09-21T23:21:30.492Z,8.74
2022-09-21T23:24:00.638Z,8.78
2022-09-21T23:26:30.231Z,8.80
2022-09-21T23:29:02.094Z,8.79
2022-09-21T23:31:31.142Z,8.77
2022-09-21T23:34:09.253Z,8.76
2022-09-21T23:36:36.588Z,8.73
2022-09-21T23:39:08.000Z,8.71
2022-09-21T23:41:36.328Z,8.71
2022-09-21T23:44:04.572Z,8.69
2022-09-21T23:46:34.860Z,8.66
2022-09-21T23:49:02.500Z,8.63
2022-09-21T23:51:32.792Z,8.62
2022-09-21T23:54:00.270Z,8.62
2022-09-21T23:56:30.385Z,8.59
2022-09-21T23:58:57.956Z,8.60
